Time;durP1;ratioP1;P1;durP2;ratioP2;P2;SDS_P1;SDS_P2;PMS_P1;PMS_P2;Temp;Humidity;BMP_temperature;BMP_pressure;BME280_temperature;BME280_humidity;BME280_pressure;Samples;Min_cycle;Max_cycle;Signal;HPM_P1;HPM_P2
2023/02/15 00:01:30;;;;;;;10.03;7.43;;;;;;;;;;5060424;28;20189;-54
2023/02/15 00:03:56;;;;;;;11.00;8.17;;;;;;;;;;5060281;28;20612;-53
2023/02/15 00:06:22;;;;;;;8.60;7.03;;;;;;;;;;5055243;28;20189;-54
2023/02/15 00:08:48;;;;;;;9.47;7.77;;;;;;;;;;5052166;28;20185;-54
2023/02/15 00:11:16;;;;;;;8.80;6.73;;;;;;;;;;5057116;28;20185;-55
2023/02/15 00:13:43;;;;;;;9.53;8.10;;;;;;;;;;5063220;28;20315;-54
2023/02/15 00:16:10;;;;;;;8.13;7.33;;;;;;;;;;5058711;28;20692;-54
2023/02/15 00:18:36;;;;;;;9.50;7.67;;;;;;;;;;5059522;28;20276;-54
2023/02/15 00:21:06;;;;;;;9.30;7.47;;;;;;;;;;5058628;28;20773;-54
2023/02/15 00:23:32;;;;;;;11.03;8.53;;;;;;;;;;5052619;28;20637;-54
2023/02/15 00:26:05;;;;;;;10.90;8.30;;;;;;;;;;5050835;28;20185;-54
2023/02/15 00:28:31;;;;;;;12.10;8.30;;;;;;;;;;5057572;28;20262;-54
2023/02/15 00:31:08;;;;;;;10.47;8.20;;;;;;;;;;5056448;28;20189;-54
2023/02/15 00:33:34;;;;;;;8.67;7.87;;;;;;;;;;5058697;28;20255;-54
2023/02/15 00:36:01;;;;;;;9.40;7.97;;;;;;;;;;5059018;28;20214;-54
2023/02/15 00:38:27;;;;;;;9.07;7.47;;;;;;;;;;5050442;28;20173;-52
2023/02/15 00:40:54;;;;;;;10.43;8.27;;;;;;;;;;5054990;28;20181;-54
2023/02/15 00:43:20;;;;;;;10.13;7.97;;;;;;;;;;5054291;28;20176;-53
2023/02/15 00:45:46;;;;;;;10.63;8.87;;;;;;;;;;5056575;28;20181;-54
2023/02/15 00:48:12;;;;;;;10.30;8.67;;;;;;;;;;5058186;28;20227;-54
2023/02/15 00:50:39;;;;;;;10.10;9.00;;;;;;;;;;5058847;28;20185;-54
2023/02/15 00:53:05;;;;;;;11.63;8.97;;;;;;;;;;5057291;28;20173;-54
2023/02/15 00:55:31;;;;;;;10.37;8.30;;;;;;;;;;5058417;28;20258;-54
2023/02/15 00:57:57;;;;;;;8.77;7.83;;;;;;;;;;5053443;28;20211;-54
2023/02/15 01:00:23;;;;;;;9.43;8.23;;;;;;;;;;5065011;28;20180;-54
2023/02/15 01:02:49;;;;;;;10.67;9.03;;;;;;;;;;5052602;28;20177;-54
2023/02/15 01:05:15;;;;;;;10.27;8.40;;;;;;;;;;5057329;28;20318;-54
2023/02/15 01:07:41;;;;;;;10.40;8.27;;;;;;;;;;5057298;28;20176;-54
2023/02/15 01:10:07;;;;;;;10.97;9.10;;;;;;;;;;5063526;28;20181;-54
2023/02/15 01:12:34;;;;;;;10.87;9.03;;;;;;;;;;5058645;28;20568;-54
2023/02/15 01:15:00;;;;;;;11.50;8.77;;;;;;;;;;5059290;28;20639;-54
2023/02/15 01:17:26;;;;;;;13.93;10.07;;;;;;;;;;5052598;28;20224;-54
2023/02/15 01:19:52;;;;;;;11.33;9.03;;;;;;;;;;5057582;28;20597;-54
2023/02/15 01:22:19;;;;;;;11.70;9.10;;;;;;;;;;5060951;28;20648;-55
2023/02/15 01:24:45;;;;;;;11.23;8.93;;;;;;;;;;5052353;28;20624;-52
2023/02/15 01:27:11;;;;;;;10.90;9.27;;;;;;;;;;5058943;28;20667;-54
2023/02/15 01:29:37;;;;;;;11.57;8.90;;;;;;;;;;5059065;28;20203;-54
2023/02/15 01:32:03;;;;;;;9.50;8.47;;;;;;;;;;5056168;28;20590;-54
2023/02/15 01:34:30;;;;;;;12.07;9.57;;;;;;;;;;5055294;28;20185;-55
2023/02/15 01:36:56;;;;;;;11.40;9.00;;;;;;;;;;5050964;28;20209;-54
2023/02/15 01:39:22;;;;;;;11.27;8.87;;;;;;;;;;5054797;28;20488;-55
2023/02/15 01:41:48;;;;;;;10.47;9.17;;;;;;;;;;5060532;28;20181;-54
2023/02/15 01:44:33;;;;;;;11.97;9.60;;;;;;;;;;5062888;28;20545;-54
2023/02/15 01:46:59;;;;;;;13.00;9.90;;;;;;;;;;5054705;28;20188;-54
2023/02/15 01:49:27;;;;;;;11.27;9.13;;;;;;;;;;5057651;28;20181;-54
2023/02/15 01:51:53;;;;;;;13.67;10.30;;;;;;;;;;5050283;28;20193;-53
2023/02/15 01:54:24;;;;;;;10.27;9.17;;;;;;;;;;5056387;28;20177;-53
2023/02/15 01:56:50;;;;;;;11.20;9.57;;;;;;;;;;5049344;28;20227;-54
2023/02/15 01:59:19;;;;;;;12.83;9.77;;;;;;;;;;5051131;28;20184;-53
2023/02/15 02:01:46;;;;;;;12.20;9.70;;;;;;;;;;5058480;28;20200;-54
2023/02/15 02:04:41;;;;;;;10.27;9.17;;;;;;;;;;5054548;28;20181;-54
2023/02/15 02:07:08;;;;;;;11.27;8.97;;;;;;;;;;5043479;28;20196;-54
2023/02/15 02:09:36;;;;;;;11.20;10.03;;;;;;;;;;5057519;28;20177;-54
2023/02/15 02:12:02;;;;;;;11.80;9.63;;;;;;;;;;5057279;28;20185;-54
2023/02/15 02:14:28;;;;;;;12.47;10.20;;;;;;;;;;5056922;28;20261;-53
2023/02/15 02:16:59;;;;;;;12.07;9.33;;;;;;;;;;5054644;28;20228;-54
2023/02/15 02:19:43;;;;;;;12.10;10.07;;;;;;;;;;5061887;28;20207;-53
2023/02/15 02:22:28;;;;;;;12.23;9.90;;;;;;;;;;5050059;28;20177;-54
2023/02/15 02:25:06;;;;;;;12.43;10.00;;;;;;;;;;5052155;28;20176;-52
2023/02/15 02:27:48;;;;;;;12.10;10.07;;;;;;;;;;5052469;28;20189;-53
2023/02/15 02:30:23;;;;;;;13.47;10.90;;;;;;;;;;5052570;28;20229;-54
2023/02/15 02:33:04;;;;;;;13.87;10.93;;;;;;;;;;5058533;28;20168;-54
2023/02/15 02:35:32;;;;;;;13.60;9.93;;;;;;;;;;5055758;28;20184;-54
2023/02/15 02:38:09;;;;;;;12.27;9.67;;;;;;;;;;5054918;28;20254;-54
2023/02/15 02:40:42;;;;;;;11.87;9.90;;;;;;;;;;5053761;28;20186;-53
2023/02/15 02:43:16;;;;;;;13.73;10.90;;;;;;;;;;5058894;28;20176;-53
2023/02/15 02:45:44;;;;;;;11.10;9.67;;;;;;;;;;5062412;28;20188;-54
2023/02/15 02:48:15;;;;;;;13.03;10.13;;;;;;;;;;5057893;28;20180;-54
2023/02/15 02:50:41;;;;;;;13.07;10.03;;;;;;;;;;5056551;28;20180;-54
2023/02/15 02:53:09;;;;;;;13.23;10.13;;;;;;;;;;5058520;28;20188;-54
2023/02/15 02:55:39;;;;;;;13.40;10.27;;;;;;;;;;5055524;28;21774;-53
2023/02/15 02:58:15;;;;;;;12.40;10.37;;;;;;;;;;5052801;28;20201;-54
2023/02/15 03:00:53;;;;;;;12.77;9.97;;;;;;;;;;5058239;28;20211;-54
2023/02/15 03:03:22;;;;;;;13.00;10.37;;;;;;;;;;5049626;28;20168;-53
2023/02/15 03:05:51;;;;;;;14.10;10.93;;;;;;;;;;5051150;28;20276;-53
2023/02/15 03:08:21;;;;;;;13.37;10.47;;;;;;;;;;5052503;28;20173;-54
2023/02/15 03:10:47;;;;;;;13.13;10.43;;;;;;;;;;5061792;28;20735;-54
2023/02/15 03:13:14;;;;;;;12.77;10.10;;;;;;;;;;5063318;28;20184;-54
2023/02/15 03:18:31;;;;;;;12.87;11.10;;;;;;;;;;5056804;28;20700;-54
2023/02/15 03:21:00;;;;;;;14.20;11.17;;;;;;;;;;5049552;28;20215;-54
2023/02/15 03:23:28;;;;;;;12.33;10.17;;;;;;;;;;5054190;28;20184;-54
2023/02/15 03:25:59;;;;;;;12.87;10.10;;;;;;;;;;5059402;28;20172;-54
2023/02/15 03:28:39;;;;;;;14.20;11.50;;;;;;;;;;5062608;28;20264;-54
2023/02/15 03:31:07;;;;;;;14.03;10.93;;;;;;;;;;5058636;28;20184;-53
2023/02/15 03:33:34;;;;;;;14.43;10.93;;;;;;;;;;5067945;28;20185;-53
2023/02/15 03:36:04;;;;;;;13.37;10.10;;;;;;;;;;5057154;28;20292;-54
2023/02/15 03:38:33;;;;;;;14.83;11.83;;;;;;;;;;5059521;28;20208;-53
2023/02/15 03:41:09;;;;;;;14.57;11.13;;;;;;;;;;5055076;28;20295;-53
2023/02/15 03:43:39;;;;;;;12.63;10.33;;;;;;;;;;5059968;28;20181;-54
2023/02/15 03:46:12;;;;;;;14.50;11.37;;;;;;;;;;5061527;28;20573;-51
2023/02/15 03:48:41;;;;;;;15.07;12.07;;;;;;;;;;5058672;28;20715;-54
2023/02/15 03:53:56;;;;;;;15.23;11.60;;;;;;;;;;5057712;28;20203;-54
2023/02/15 03:56:22;;;;;;;15.03;11.47;;;;;;;;;;5060133;28;20254;-54
2023/02/15 04:04:21;;;;;;;12.87;10.43;;;;;;;;;;5056461;28;20219;-54
2023/02/15 04:06:47;;;;;;;13.70;10.90;;;;;;;;;;5061898;28;20185;-54
2023/02/15 04:11:58;;;;;;;15.43;11.97;;;;;;;;;;5053861;28;20641;-53
2023/02/15 04:17:09;;;;;;;13.83;12.30;;;;;;;;;;5053177;28;20639;-53
2023/02/15 04:25:15;;;;;;;13.00;10.17;;;;;;;;;;5063700;28;20234;-54
2023/02/15 04:27:43;;;;;;;15.47;11.53;;;;;;;;;;5058892;28;20182;-54
2023/02/15 04:30:10;;;;;;;15.00;11.67;;;;;;;;;;5056564;28;20552;-54
2023/02/15 04:32:36;;;;;;;13.17;10.67;;;;;;;;;;5057680;28;20189;-54
2023/02/15 04:35:02;;;;;;;15.57;11.00;;;;;;;;;;5063962;28;20655;-54
2023/02/15 04:37:28;;;;;;;11.70;10.47;;;;;;;;;;5059120;28;20602;-54
2023/02/15 04:39:54;;;;;;;14.00;11.17;;;;;;;;;;5058870;28;20185;-54
2023/02/15 04:42:20;;;;;;;13.00;10.97;;;;;;;;;;5059206;28;20233;-54
2023/02/15 04:44:46;;;;;;;14.30;12.00;;;;;;;;;;5056645;28;20209;-53
2023/02/15 04:47:12;;;;;;;14.53;11.43;;;;;;;;;;5058377;28;20188;-54
2023/02/15 04:49:38;;;;;;;14.97;11.43;;;;;;;;;;5052245;28;20178;-53
2023/02/15 04:52:04;;;;;;;14.87;11.30;;;;;;;;;;5066175;28;20188;-53
2023/02/15 04:54:30;;;;;;;15.40;11.00;;;;;;;;;;5063106;28;20631;-53
2023/02/15 04:56:56;;;;;;;14.30;11.17;;;;;;;;;;5058950;28;20204;-54
2023/02/15 04:59:22;;;;;;;15.40;11.97;;;;;;;;;;5057221;28;20184;-54
2023/02/15 05:01:48;;;;;;;17.07;12.83;;;;;;;;;;5055915;28;20246;-54
2023/02/15 05:04:14;;;;;;;14.87;11.20;;;;;;;;;;5067967;28;20643;-54
2023/02/15 05:06:40;;;;;;;15.23;11.23;;;;;;;;;;5054385;28;20207;-54
2023/02/15 05:09:06;;;;;;;14.77;11.13;;;;;;;;;;5060324;28;20180;-54
2023/02/15 05:11:32;;;;;;;15.07;11.93;;;;;;;;;;5053374;28;20642;-54
2023/02/15 05:13:59;;;;;;;16.60;13.23;;;;;;;;;;5052909;28;20181;-54
2023/02/15 05:16:27;;;;;;;16.90;12.10;;;;;;;;;;5056960;28;20239;-53
2023/02/15 05:18:53;;;;;;;14.77;11.67;;;;;;;;;;5057600;28;20173;-54
2023/02/15 05:21:19;;;;;;;16.60;12.63;;;;;;;;;;5052849;28;20173;-54
2023/02/15 05:23:45;;;;;;;15.27;11.20;;;;;;;;;;5049972;28;20537;-52
2023/02/15 05:29:02;;;;;;;13.37;11.87;;;;;;;;;;5053948;28;20676;-54
2023/02/15 05:31:28;;;;;;;15.67;11.57;;;;;;;;;;5060435;28;20199;-53
2023/02/15 05:33:54;;;;;;;15.03;11.70;;;;;;;;;;5062775;28;20184;-53
2023/02/15 05:36:20;;;;;;;15.27;12.10;;;;;;;;;;5061180;28;20200;-53
2023/02/15 05:38:46;;;;;;;14.27;11.73;;;;;;;;;;5055569;28;20605;-53
2023/02/15 05:41:12;;;;;;;16.50;12.50;;;;;;;;;;5058549;28;20559;-54
2023/02/15 05:43:38;;;;;;;15.87;12.23;;;;;;;;;;5053427;28;20556;-54
2023/02/15 05:46:05;;;;;;;16.20;11.60;;;;;;;;;;5056251;28;20834;-54
2023/02/15 05:48:31;;;;;;;14.67;11.77;;;;;;;;;;5060205;28;20739;-53
2023/02/15 05:50:58;;;;;;;14.27;10.97;;;;;;;;;;5057761;28;20234;-54
2023/02/15 05:53:24;;;;;;;16.03;11.63;;;;;;;;;;5062980;28;20203;-54
2023/02/15 05:55:50;;;;;;;15.70;12.30;;;;;;;;;;5051973;28;20688;-52
2023/02/15 05:58:16;;;;;;;14.50;12.20;;;;;;;;;;5056285;28;20195;-54
2023/02/15 06:00:43;;;;;;;17.57;12.03;;;;;;;;;;5061026;28;20195;-53
2023/02/15 06:03:09;;;;;;;15.23;12.20;;;;;;;;;;5056113;28;20628;-54
2023/02/15 06:05:35;;;;;;;16.60;12.73;;;;;;;;;;5058270;28;20185;-53
2023/02/15 06:08:01;;;;;;;17.37;12.47;;;;;;;;;;5050095;28;20587;-54
2023/02/15 06:10:27;;;;;;;17.33;12.70;;;;;;;;;;5058173;28;20181;-54
2023/02/15 06:12:53;;;;;;;15.73;11.80;;;;;;;;;;5052427;28;20184;-52
2023/02/15 06:15:19;;;;;;;18.60;13.17;;;;;;;;;;5057541;28;20543;-54
2023/02/15 06:17:45;;;;;;;18.50;13.50;;;;;;;;;;5055422;28;20208;-54
2023/02/15 06:20:12;;;;;;;16.13;12.50;;;;;;;;;;5056475;28;20243;-53
2023/02/15 06:22:38;;;;;;;17.37;12.23;;;;;;;;;;5059598;28;20291;-54
2023/02/15 06:25:04;;;;;;;16.83;13.07;;;;;;;;;;5049560;28;20184;-54
2023/02/15 06:27:30;;;;;;;14.80;11.43;;;;;;;;;;5053608;28;20177;-53
2023/02/15 06:29:56;;;;;;;14.80;12.10;;;;;;;;;;5055272;28;20204;-53
2023/02/15 06:32:22;;;;;;;15.50;12.57;;;;;;;;;;5055955;28;20188;-54
2023/02/15 06:34:48;;;;;;;16.60;12.57;;;;;;;;;;5050791;28;20184;-53
2023/02/15 06:37:14;;;;;;;16.67;12.33;;;;;;;;;;5059592;28;20220;-54
2023/02/15 06:39:40;;;;;;;17.20;12.73;;;;;;;;;;5054431;28;20273;-54
2023/02/15 06:42:06;;;;;;;18.00;12.93;;;;;;;;;;5056400;28;20522;-54
2023/02/15 06:44:32;;;;;;;16.37;12.67;;;;;;;;;;5054534;28;20187;-54
2023/02/15 06:46:58;;;;;;;16.73;12.83;;;;;;;;;;5057587;28;20629;-54
2023/02/15 06:49:24;;;;;;;18.23;13.13;;;;;;;;;;5058811;28;20187;-55
2023/02/15 06:51:50;;;;;;;16.70;12.73;;;;;;;;;;5054911;28;20533;-54
2023/02/15 06:54:16;;;;;;;16.23;12.30;;;;;;;;;;5059350;28;20185;-54
2023/02/15 06:56:43;;;;;;;18.53;13.43;;;;;;;;;;5049224;28;20278;-54
2023/02/15 06:59:09;;;;;;;17.50;13.33;;;;;;;;;;5054346;28;20173;-55
2023/02/15 07:01:36;;;;;;;18.17;13.13;;;;;;;;;;5052695;28;20185;-54
2023/02/15 07:04:02;;;;;;;16.37;13.83;;;;;;;;;;5057141;28;20181;-54
2023/02/15 07:06:32;;;;;;;18.87;13.77;;;;;;;;;;5057591;28;20185;-54
2023/02/15 07:08:58;;;;;;;15.93;12.17;;;;;;;;;;5054952;28;20542;-54
2023/02/15 07:14:09;;;;;;;15.17;11.93;;;;;;;;;;5054052;28;20191;-54
2023/02/15 07:16:35;;;;;;;19.43;12.77;;;;;;;;;;5059778;28;20301;-53
2023/02/15 07:19:01;;;;;;;16.50;12.93;;;;;;;;;;5064225;28;20178;-55
2023/02/15 07:21:27;;;;;;;15.90;12.17;;;;;;;;;;5061968;28;20580;-54
2023/02/15 07:23:56;;;;;;;17.13;12.77;;;;;;;;;;5064578;28;20236;-55
2023/02/15 07:26:22;;;;;;;17.63;12.97;;;;;;;;;;5054580;28;20335;-54
2023/02/15 07:28:48;;;;;;;17.23;12.17;;;;;;;;;;5063306;28;20180;-54
2023/02/15 07:31:14;;;;;;;18.27;12.00;;;;;;;;;;5058422;28;20195;-52
2023/02/15 07:33:40;;;;;;;17.63;12.50;;;;;;;;;;5060327;28;20177;-55
2023/02/15 07:36:07;;;;;;;15.70;12.30;;;;;;;;;;5055847;28;20722;-53
2023/02/15 07:38:34;;;;;;;14.13;11.50;;;;;;;;;;5056845;28;20185;-54
2023/02/15 07:41:01;;;;;;;17.27;12.57;;;;;;;;;;5058450;28;20652;-55
2023/02/15 07:43:29;;;;;;;17.33;12.93;;;;;;;;;;5061268;28;20651;-54
2023/02/15 07:45:55;;;;;;;18.17;12.10;;;;;;;;;;5058227;28;20640;-55
2023/02/15 07:48:22;;;;;;;18.63;13.87;;;;;;;;;;5058814;28;20202;-53
2023/02/15 07:50:48;;;;;;;15.93;12.97;;;;;;;;;;5058445;28;20533;-54
2023/02/15 07:53:14;;;;;;;15.23;11.60;;;;;;;;;;5063327;28;20177;-54
2023/02/15 07:55:40;;;;;;;15.80;12.40;;;;;;;;;;5059067;28;20548;-54
2023/02/15 07:58:06;;;;;;;16.57;12.77;;;;;;;;;;5058795;28;20537;-55
2023/02/15 08:00:55;;;;;;;15.80;12.67;;;;;;;;;;5053317;28;20219;-54
2023/02/15 08:03:18;;;;;;;16.43;12.53;;;;;;;;;;5058291;28;20200;-53
2023/02/15 08:05:45;;;;;;;16.17;11.80;;;;;;;;;;5060168;28;20193;-54
2023/02/15 08:08:29;;;;;;;18.93;12.43;;;;;;;;;;5053743;28;20231;-55
2023/02/15 08:13:54;;;;;;;16.60;12.23;;;;;;;;;;5058420;28;20183;-54
2023/02/15 08:16:22;;;;;;;15.43;12.63;;;;;;;;;;5063179;28;20256;-54
2023/02/15 08:18:48;;;;;;;17.00;12.23;;;;;;;;;;5056304;28;20242;-54
2023/02/15 08:21:14;;;;;;;17.90;13.13;;;;;;;;;;5054237;28;20188;-54
2023/02/15 08:23:40;;;;;;;17.73;13.37;;;;;;;;;;5051454;28;20177;-54
2023/02/15 08:26:06;;;;;;;17.37;13.00;;;;;;;;;;5057303;28;21295;-54
2023/02/15 08:28:32;;;;;;;16.90;12.97;;;;;;;;;;5051383;28;20185;-55
2023/02/15 08:31:09;;;;;;;16.77;12.03;;;;;;;;;;5059338;28;20187;-53
2023/02/15 08:33:36;;;;;;;18.10;13.27;;;;;;;;;;5058552;28;20237;-53
2023/02/15 08:36:06;;;;;;;18.23;12.60;;;;;;;;;;5062293;28;20636;-54
2023/02/15 08:38:32;;;;;;;17.47;12.30;;;;;;;;;;5062857;28;20639;-55
2023/02/15 08:40:59;;;;;;;21.43;13.80;;;;;;;;;;5057887;28;20185;-53
2023/02/15 08:43:25;;;;;;;17.33;12.03;;;;;;;;;;5062710;28;20169;-54
2023/02/15 08:45:51;;;;;;;16.63;11.67;;;;;;;;;;5054244;28;20185;-54
2023/02/15 08:48:17;;;;;;;16.00;12.67;;;;;;;;;;5062214;28;20200;-54
2023/02/15 08:50:43;;;;;;;15.97;12.70;;;;;;;;;;5057132;28;20180;-53
2023/02/15 08:53:09;;;;;;;16.13;12.13;;;;;;;;;;5056068;28;20188;-55
2023/02/15 08:55:35;;;;;;;16.03;12.53;;;;;;;;;;5059291;28;20239;-54
2023/02/15 08:58:01;;;;;;;17.07;11.60;;;;;;;;;;5054607;28;20200;-55
2023/02/15 09:00:28;;;;;;;17.10;12.33;;;;;;;;;;5053642;28;20649;-55
2023/02/15 09:02:54;;;;;;;17.67;12.10;;;;;;;;;;5062767;28;20715;-54
2023/02/15 09:05:21;;;;;;;16.60;12.10;;;;;;;;;;5057822;28;20255;-54
2023/02/15 09:07:46;;;;;;;18.77;12.23;;;;;;;;;;5058931;28;20658;-54
2023/02/15 09:10:13;;;;;;;15.53;12.20;;;;;;;;;;5057028;28;20227;-54
2023/02/15 09:12:39;;;;;;;15.60;12.50;;;;;;;;;;5059232;28;20177;-53
2023/02/15 09:15:05;;;;;;;17.10;11.90;;;;;;;;;;5060990;28;20184;-54
2023/02/15 09:17:31;;;;;;;16.07;12.33;;;;;;;;;;5055790;28;20228;-54
2023/02/15 09:19:57;;;;;;;18.73;13.13;;;;;;;;;;5061450;28;20226;-55
2023/02/15 09:22:23;;;;;;;17.37;12.80;;;;;;;;;;5057062;28;20531;-55
2023/02/15 09:24:49;;;;;;;14.73;11.00;;;;;;;;;;5054463;28;20259;-54
2023/02/15 09:27:15;;;;;;;17.27;12.30;;;;;;;;;;5053682;28;20197;-54
2023/02/15 09:29:41;;;;;;;16.87;12.30;;;;;;;;;;5063795;28;20761;-55
2023/02/15 09:32:07;;;;;;;18.53;12.97;;;;;;;;;;5062049;28;20188;-54
2023/02/15 09:34:34;;;;;;;17.03;11.27;;;;;;;;;;5055409;28;20395;-54
2023/02/15 09:37:00;;;;;;;14.97;11.70;;;;;;;;;;5060021;28;20913;-55
2023/02/15 09:39:27;;;;;;;15.67;11.80;;;;;;;;;;5058209;28;20705;-55
2023/02/15 09:42:12;;;;;;;18.27;11.20;;;;;;;;;;5053918;28;20192;-55
2023/02/15 09:44:50;;;;;;;16.40;11.30;;;;;;;;;;5056093;28;20185;-54
2023/02/15 09:47:30;;;;;;;15.90;11.97;;;;;;;;;;5056714;28;20224;-53
2023/02/15 09:49:59;;;;;;;15.47;11.70;;;;;;;;;;5058294;28;20232;-55
2023/02/15 09:52:34;;;;;;;14.73;10.77;;;;;;;;;;5058076;28;20180;-55
2023/02/15 09:55:13;;;;;;;15.60;11.83;;;;;;;;;;5055872;28;20176;-55
2023/02/15 09:57:50;;;;;;;14.87;11.30;;;;;;;;;;5065779;28;20188;-54
2023/02/15 10:00:30;;;;;;;14.60;11.47;;;;;;;;;;5054809;28;20542;-55
2023/02/15 10:03:11;;;;;;;15.97;11.23;;;;;;;;;;5055369;28;20181;-54
2023/02/15 10:05:37;;;;;;;17.07;11.77;;;;;;;;;;5062281;28;20688;-54
2023/02/15 10:08:30;;;;;;;15.03;11.33;;;;;;;;;;5061773;28;20207;-54
2023/02/15 10:11:38;;;;;;;16.87;11.67;;;;;;;;;;5053528;28;20885;-54
2023/02/15 10:13:53;;;;;;;15.63;11.80;;;;;;;;;;5059793;28;20189;-54
2023/02/15 10:16:35;;;;;;;14.13;10.47;;;;;;;;;;5054045;28;20224;-53
2023/02/15 10:19:08;;;;;;;13.00;10.10;;;;;;;;;;5061202;28;20604;-55
2023/02/15 10:21:34;;;;;;;14.20;10.67;;;;;;;;;;5056051;28;20210;-54
2023/02/15 10:24:24;;;;;;;14.37;11.67;;;;;;;;;;5064488;28;20173;-54
2023/02/15 10:26:50;;;;;;;14.60;10.37;;;;;;;;;;5055387;28;20323;-53
2023/02/15 10:29:17;;;;;;;15.03;11.00;;;;;;;;;;5066495;28;20173;-55
2023/02/15 10:31:46;;;;;;;14.00;10.50;;;;;;;;;;5052762;28;20184;-54
2023/02/15 10:34:20;;;;;;;13.60;10.70;;;;;;;;;;5060526;28;20578;-54
2023/02/15 10:36:52;;;;;;;15.83;11.07;;;;;;;;;;5058424;28;20184;-55
2023/02/15 10:39:37;;;;;;;15.93;11.93;;;;;;;;;;5055935;28;20188;-54
2023/02/15 10:42:11;;;;;;;14.83;10.87;;;;;;;;;;5064136;28;20177;-55
2023/02/15 10:44:37;;;;;;;15.83;10.30;;;;;;;;;;5057338;28;20663;-54
2023/02/15 10:47:11;;;;;;;17.40;10.40;;;;;;;;;;5064521;28;20208;-55
2023/02/15 10:49:43;;;;;;;15.50;11.13;;;;;;;;;;5065340;28;20188;-54
2023/02/15 10:52:16;;;;;;;14.73;10.83;;;;;;;;;;5060591;28;20643;-55
2023/02/15 10:54:49;;;;;;;13.80;10.87;;;;;;;;;;5054181;28;20187;-55
2023/02/15 10:57:34;;;;;;;14.20;11.13;;;;;;;;;;5061305;28;20226;-54
2023/02/15 11:00:10;;;;;;;14.77;10.57;;;;;;;;;;5061820;28;20328;-54
2023/02/15 11:02:42;;;;;;;12.43;10.40;;;;;;;;;;5061627;28;20184;-55
2023/02/15 11:05:32;;;;;;;12.77;10.50;;;;;;;;;;5059006;28;20189;-55
2023/02/15 11:07:59;;;;;;;13.67;10.87;;;;;;;;;;5065797;28;20215;-55
2023/02/15 11:10:43;;;;;;;15.47;11.07;;;;;;;;;;5062525;28;20228;-54
2023/02/15 11:13:12;;;;;;;15.60;11.33;;;;;;;;;;5055918;28;20640;-54
2023/02/15 11:15:45;;;;;;;14.13;11.07;;;;;;;;;;5061266;28;20794;-55
2023/02/15 11:18:14;;;;;;;13.47;10.40;;;;;;;;;;5078505;28;20185;-53
2023/02/15 11:20:47;;;;;;;13.77;10.63;;;;;;;;;;5062796;28;20230;-55
2023/02/15 11:23:16;;;;;;;13.93;10.40;;;;;;;;;;5067859;28;20192;-54
2023/02/15 11:25:43;;;;;;;14.57;11.20;;;;;;;;;;5059926;28;20259;-55
2023/02/15 11:28:18;;;;;;;13.47;10.90;;;;;;;;;;5059437;28;20227;-55
2023/02/15 11:30:48;;;;;;;17.80;11.00;;;;;;;;;;5056085;28;20184;-55
2023/02/15 11:33:23;;;;;;;14.47;11.10;;;;;;;;;;5057352;28;20204;-55
2023/02/15 11:35:54;;;;;;;16.30;10.57;;;;;;;;;;5059992;28;20784;-55
2023/02/15 11:38:26;;;;;;;14.17;10.37;;;;;;;;;;5059356;28;20267;-55
2023/02/15 11:40:57;;;;;;;13.40;10.53;;;;;;;;;;5052967;28;20188;-55
2023/02/15 11:43:33;;;;;;;13.80;10.77;;;;;;;;;;5059247;28;20188;-55
2023/02/15 11:45:59;;;;;;;10.70;9.60;;;;;;;;;;5055838;28;20714;-55
2023/02/15 11:48:25;;;;;;;13.30;10.27;;;;;;;;;;5055878;28;20656;-53
2023/02/15 11:50:52;;;;;;;14.23;10.73;;;;;;;;;;5055338;28;20206;-54
2023/02/15 11:53:25;;;;;;;13.47;10.37;;;;;;;;;;5064658;28;20231;-55
2023/02/15 11:55:51;;;;;;;13.27;10.47;;;;;;;;;;5058648;28;20208;-54
2023/02/15 11:58:28;;;;;;;12.43;10.30;;;;;;;;;;5057359;28;20226;-55
2023/02/15 12:00:57;;;;;;;14.07;10.10;;;;;;;;;;5058571;28;20635;-54
2023/02/15 12:03:28;;;;;;;13.40;10.67;;;;;;;;;;5061466;28;20964;-55
2023/02/15 12:05:58;;;;;;;22.70;12.50;;;;;;;;;;5057282;28;20184;-55
2023/02/15 12:08:24;;;;;;;13.83;9.60;;;;;;;;;;5064039;28;20205;-55
2023/02/15 12:10:51;;;;;;;10.80;9.63;;;;;;;;;;5063707;28;20267;-55
2023/02/15 12:13:19;;;;;;;13.60;10.20;;;;;;;;;;5060118;28;20180;-55
2023/02/15 12:15:46;;;;;;;15.20;9.73;;;;;;;;;;5063486;28;20228;-54
2023/02/15 12:18:21;;;;;;;12.97;10.20;;;;;;;;;;5058457;28;20239;-54
2023/02/15 12:20:50;;;;;;;14.20;10.27;;;;;;;;;;5060306;28;20183;-54
2023/02/15 12:23:16;;;;;;;11.77;9.50;;;;;;;;;;5063474;28;20178;-55
2023/02/15 12:25:45;;;;;;;12.90;10.37;;;;;;;;;;5061010;28;20713;-55
2023/02/15 12:28:31;;;;;;;14.37;10.37;;;;;;;;;;5057240;28;20204;-55
2023/02/15 12:30:57;;;;;;;14.60;10.07;;;;;;;;;;5062017;28;20183;-55
2023/02/15 12:33:45;;;;;;;13.70;10.10;;;;;;;;;;5060801;28;20184;-53
2023/02/15 12:36:28;;;;;;;13.17;10.03;;;;;;;;;;5058634;28;20182;-54
2023/02/15 12:39:05;;;;;;;13.17;9.87;;;;;;;;;;5061222;28;20540;-55
2023/02/15 12:41:32;;;;;;;11.83;9.63;;;;;;;;;;5058994;28;20574;-53
2023/02/15 12:44:18;;;;;;;12.30;9.03;;;;;;;;;;5059060;28;20179;-55
2023/02/15 12:46:56;;;;;;;12.10;9.80;;;;;;;;;;5054939;28;20204;-55
2023/02/15 12:49:22;;;;;;;12.50;9.53;;;;;;;;;;5058495;28;20179;-55
2023/02/15 12:51:48;;;;;;;12.80;9.77;;;;;;;;;;5057875;28;20180;-55
2023/02/15 12:54:18;;;;;;;12.57;9.87;;;;;;;;;;5057788;28;20267;-54
2023/02/15 12:56:44;;;;;;;12.40;8.93;;;;;;;;;;5058048;28;20208;-54
2023/02/15 12:59:15;;;;;;;12.63;9.93;;;;;;;;;;5054564;28;20274;-55
2023/02/15 13:01:42;;;;;;;11.57;8.70;;;;;;;;;;5057430;28;20291;-55
2023/02/15 13:04:28;;;;;;;13.40;9.93;;;;;;;;;;5058883;28;20955;-55
2023/02/15 13:06:56;;;;;;;11.97;9.90;;;;;;;;;;5060925;28;20208;-56
2023/02/15 13:09:31;;;;;;;12.60;9.23;;;;;;;;;;5066305;28;20262;-55
2023/02/15 13:11:58;;;;;;;12.90;9.50;;;;;;;;;;5055904;28;20179;-55
2023/02/15 13:14:32;;;;;;;13.47;9.53;;;;;;;;;;5058400;28;20692;-54
2023/02/15 13:16:59;;;;;;;12.87;9.77;;;;;;;;;;5055800;28;20224;-54
2023/02/15 13:19:37;;;;;;;13.50;9.20;;;;;;;;;;5061133;28;20177;-53
2023/02/15 13:22:06;;;;;;;11.20;8.77;;;;;;;;;;5059291;28;20176;-55
2023/02/15 13:24:58;;;;;;;13.23;8.80;;;;;;;;;;5055061;28;20660;-53
2023/02/15 13:27:27;;;;;;;9.73;8.13;;;;;;;;;;5052762;28;20221;-54
2023/02/15 13:29:57;;;;;;;11.87;9.23;;;;;;;;;;5060685;28;20184;-54
2023/02/15 13:32:29;;;;;;;11.20;8.57;;;;;;;;;;5058948;28;20176;-55
2023/02/15 13:34:57;;;;;;;11.33;9.03;;;;;;;;;;5059507;28;20225;-54
2023/02/15 13:37:42;;;;;;;9.73;8.27;;;;;;;;;;5064487;28;20184;-55
2023/02/15 13:40:14;;;;;;;10.30;7.93;;;;;;;;;;5056034;28;20193;-55
2023/02/15 13:42:49;;;;;;;9.33;7.87;;;;;;;;;;5057157;28;20203;-55
2023/02/15 13:45:30;;;;;;;12.57;8.50;;;;;;;;;;5057757;28;20212;-55
2023/02/15 13:48:02;;;;;;;10.03;8.47;;;;;;;;;;5054874;28;20730;-55
2023/02/15 13:50:37;;;;;;;13.07;8.90;;;;;;;;;;5055655;28;20540;-55
2023/02/15 13:53:21;;;;;;;11.90;8.87;;;;;;;;;;5058376;28;20187;-55
2023/02/15 13:55:52;;;;;;;11.40;8.70;;;;;;;;;;5057207;28;20678;-54
2023/02/15 13:58:31;;;;;;;11.37;8.47;;;;;;;;;;5052877;28;20213;-55
2023/02/15 14:01:18;;;;;;;12.33;9.10;;;;;;;;;;5057558;28;20189;-55
2023/02/15 14:03:56;;;;;;;11.13;8.77;;;;;;;;;;5042878;28;20192;-55
2023/02/15 14:06:37;;;;;;;11.73;8.13;;;;;;;;;;5053197;28;20180;-55
2023/02/15 14:09:24;;;;;;;12.83;7.87;;;;;;;;;;5052169;28;20176;-54
2023/02/15 14:12:10;;;;;;;11.60;8.87;;;;;;;;;;5062729;28;20168;-54
2023/02/15 14:14:42;;;;;;;9.13;7.80;;;;;;;;;;5052117;28;20659;-55
2023/02/15 14:17:21;;;;;;;11.97;8.10;;;;;;;;;;5051521;28;20228;-54
2023/02/15 14:19:50;;;;;;;11.27;9.13;;;;;;;;;;5056805;28;20966;-55
2023/02/15 14:22:22;;;;;;;12.63;9.00;;;;;;;;;;5056006;28;20191;-54
2023/02/15 14:24:51;;;;;;;11.13;8.47;;;;;;;;;;5058459;28;20294;-55
2023/02/15 14:27:21;;;;;;;10.67;8.87;;;;;;;;;;5056299;28;20196;-55
2023/02/15 14:29:54;;;;;;;10.33;8.30;;;;;;;;;;5060410;28;20529;-55
2023/02/15 14:32:37;;;;;;;9.67;7.47;;;;;;;;;;5054026;28;20624;-55
2023/02/15 14:35:04;;;;;;;9.17;6.93;;;;;;;;;;5048636;28;20181;-53
2023/02/15 14:37:43;;;;;;;11.13;7.73;;;;;;;;;;5055881;28;20651;-55
2023/02/15 14:43:00;;;;;;;10.87;7.43;;;;;;;;;;5051501;28;20200;-55
2023/02/15 14:45:31;;;;;;;10.40;7.90;;;;;;;;;;5057950;28;20196;-55
2023/02/15 14:48:03;;;;;;;11.30;8.60;;;;;;;;;;5053551;28;20200;-56
2023/02/15 14:50:33;;;;;;;9.87;8.40;;;;;;;;;;5060295;28;20279;-55
2023/02/15 14:53:15;;;;;;;9.73;8.33;;;;;;;;;;5058444;28;20184;-55
2023/02/15 14:55:41;;;;;;;10.13;8.20;;;;;;;;;;5053712;28;20208;-55
2023/02/15 14:58:12;;;;;;;11.30;8.77;;;;;;;;;;5059576;28;20272;-55
2023/02/15 15:00:39;;;;;;;8.57;7.63;;;;;;;;;;5059967;28;20279;-54
2023/02/15 15:03:13;;;;;;;10.80;8.30;;;;;;;;;;5056605;28;20271;-55
2023/02/15 15:05:48;;;;;;;10.77;8.50;;;;;;;;;;5059105;28;20409;-55
2023/02/15 15:08:29;;;;;;;11.97;9.07;;;;;;;;;;5054859;28;20208;-55
2023/02/15 15:10:55;;;;;;;12.40;8.67;;;;;;;;;;5064102;28;20188;-56